Jacquet River, Canada
Current Conditions -  °F | °C
As of 8:00 PM on Saturday 25 Oct 2014 (Local Time) from CZBF Reporting Station
Drizzle Drizzle  
Wind Chill: 39°   Ceiling: 500
Heat Index: 39°   Visibility: 3mi
Dew Point: 39°   Wind: 3mph
Humidity: 100%   Direction: 40°NE
Pressure: 29.58"   Gusts: NA
Location:  47.92°N, 66°W
Report Text: CZBF 252300Z 04003KT 3SM -DZ BR OVC005 04/04 A2958 RMK ST8 SLP020
Loading
Personal Weather Stations






























Interactive Weather Map New forecast layout! Learn more

10-Day Weather Forecast

Advertisements
Track Severe Weather on mobile